sensor_id;sensor_type;location;lat;lon;timestamp;temperature;humidity
14475;DHT22;7323;50.848;4.334;2023-09-08T00:01:00;25.60;1.00
14475;DHT22;7323;50.848;4.334;2023-09-08T00:03:25;25.50;1.00
14475;DHT22;7323;50.848;4.334;2023-09-08T00:05:52;25.70;1.00
14475;DHT22;7323;50.848;4.334;2023-09-08T00:08:18;25.70;1.00
14475;DHT22;7323;50.848;4.334;2023-09-08T00:10:43;25.70;1.00
14475;DHT22;7323;50.848;4.334;2023-09-08T00:13:09;25.80;1.00
14475;DHT22;7323;50.848;4.334;2023-09-08T00:15:35;25.70;1.00
14475;DHT22;7323;50.848;4.334;2023-09-08T00:18:01;25.70;1.00
14475;DHT22;7323;50.848;4.334;2023-09-08T00:20:26;25.70;1.00
14475;DHT22;7323;50.848;4.334;2023-09-08T00:22:52;25.60;1.00
14475;DHT22;7323;50.848;4.334;2023-09-08T00:25:20;25.60;1.00
14475;DHT22;7323;50.848;4.334;2023-09-08T00:27:46;25.60;1.00
14475;DHT22;7323;50.848;4.334;2023-09-08T00:30:12;25.70;1.00
14475;DHT22;7323;50.848;4.334;2023-09-08T00:32:38;25.60;1.00
14475;DHT22;7323;50.848;4.334;2023-09-08T00:35:06;25.50;1.00
14475;DHT22;7323;50.848;4.334;2023-09-08T00:37:32;25.40;1.00
14475;DHT22;7323;50.848;4.334;2023-09-08T00:39:58;25.40;1.00
14475;DHT22;7323;50.848;4.334;2023-09-08T00:42:25;25.40;1.00
14475;DHT22;7323;50.848;4.334;2023-09-08T00:44:51;25.40;1.00
14475;DHT22;7323;50.848;4.334;2023-09-08T00:47:19;25.30;1.00
14475;DHT22;7323;50.848;4.334;2023-09-08T00:49:45;25.30;1.00
14475;DHT22;7323;50.848;4.334;2023-09-08T00:52:11;25.20;1.00
14475;DHT22;7323;50.848;4.334;2023-09-08T00:54:37;25.30;1.00
14475;DHT22;7323;50.848;4.334;2023-09-08T00:57:04;25.30;1.00
14475;DHT22;7323;50.848;4.334;2023-09-08T00:59:31;25.20;1.00
14475;DHT22;7323;50.848;4.334;2023-09-08T01:01:58;25.20;1.00
14475;DHT22;7323;50.848;4.334;2023-09-08T01:04:24;25.30;1.00
14475;DHT22;7323;50.848;4.334;2023-09-08T01:06:50;25.20;1.00
14475;DHT22;7323;50.848;4.334;2023-09-08T01:09:17;25.00;1.00
14475;DHT22;7323;50.848;4.334;2023-09-08T01:11:46;24.70;1.00
14475;DHT22;7323;50.848;4.334;2023-09-08T01:14:13;24.70;1.00
14475;DHT22;7323;50.848;4.334;2023-09-08T01:16:39;24.70;1.00
14475;DHT22;7323;50.848;4.334;2023-09-08T01:19:11;24.70;1.00
14475;DHT22;7323;50.848;4.334;2023-09-08T01:21:52;24.60;1.00
14475;DHT22;7323;50.848;4.334;2023-09-08T01:25:06;24.70;1.00
14475;DHT22;7323;50.848;4.334;2023-09-08T01:27:35;24.80;1.00
14475;DHT22;7323;50.848;4.334;2023-09-08T01:30:05;24.80;1.00
14475;DHT22;7323;50.848;4.334;2023-09-08T01:32:32;24.70;1.00
14475;DHT22;7323;50.848;4.334;2023-09-08T01:34:58;24.60;1.00
14475;DHT22;7323;50.848;4.334;2023-09-08T01:37:25;24.70;1.00
14475;DHT22;7323;50.848;4.334;2023-09-08T01:39:51;24.70;1.00
14475;DHT22;7323;50.848;4.334;2023-09-08T01:42:17;24.70;1.00
14475;DHT22;7323;50.848;4.334;2023-09-08T01:44:43;24.70;1.00
14475;DHT22;7323;50.848;4.334;2023-09-08T01:47:08;24.70;1.00
14475;DHT22;7323;50.848;4.334;2023-09-08T01:49:34;24.70;1.00
14475;DHT22;7323;50.848;4.334;2023-09-08T01:51:59;24.80;1.00
14475;DHT22;7323;50.848;4.334;2023-09-08T01:54:25;24.80;1.00
14475;DHT22;7323;50.848;4.334;2023-09-08T01:56:51;24.70;1.00
14475;DHT22;7323;50.848;4.334;2023-09-08T01:59:17;24.70;1.00
14475;DHT22;7323;50.848;4.334;2023-09-08T02:01:43;24.60;1.00
14475;DHT22;7323;50.848;4.334;2023-09-08T02:04:08;24.60;1.00
14475;DHT22;7323;50.848;4.334;2023-09-08T02:06:34;24.60;1.00
14475;DHT22;7323;50.848;4.334;2023-09-08T02:09:01;24.60;1.00
14475;DHT22;7323;50.848;4.334;2023-09-08T02:11:26;24.70;1.00
14475;DHT22;7323;50.848;4.334;2023-09-08T02:13:53;24.70;1.00
14475;DHT22;7323;50.848;4.334;2023-09-08T02:16:19;24.70;1.00
14475;DHT22;7323;50.848;4.334;2023-09-08T02:18:45;24.60;1.00
14475;DHT22;7323;50.848;4.334;2023-09-08T02:21:11;24.70;1.00
14475;DHT22;7323;50.848;4.334;2023-09-08T02:23:37;24.70;1.00
14475;DHT22;7323;50.848;4.334;2023-09-08T02:26:03;24.70;1.00
14475;DHT22;7323;50.848;4.334;2023-09-08T02:28:29;24.70;1.00
14475;DHT22;7323;50.848;4.334;2023-09-08T02:30:55;24.80;1.00
14475;DHT22;7323;50.848;4.334;2023-09-08T02:33:21;24.60;1.00
14475;DHT22;7323;50.848;4.334;2023-09-08T02:35:46;24.60;1.00
14475;DHT22;7323;50.848;4.334;2023-09-08T02:38:12;24.50;1.00
14475;DHT22;7323;50.848;4.334;2023-09-08T02:40:38;24.50;1.00
14475;DHT22;7323;50.848;4.334;2023-09-08T02:43:04;24.60;1.00
14475;DHT22;7323;50.848;4.334;2023-09-08T02:45:30;24.60;1.00
14475;DHT22;7323;50.848;4.334;2023-09-08T02:47:55;24.60;1.00
14475;DHT22;7323;50.848;4.334;2023-09-08T02:50:21;24.50;1.00
14475;DHT22;7323;50.848;4.334;2023-09-08T02:52:47;24.50;1.00
14475;DHT22;7323;50.848;4.334;2023-09-08T02:55:13;24.40;1.00
14475;DHT22;7323;50.848;4.334;2023-09-08T02:57:39;24.30;1.00
14475;DHT22;7323;50.848;4.334;2023-09-08T03:00:06;24.20;1.00
14475;DHT22;7323;50.848;4.334;2023-09-08T03:02:33;24.20;1.00
14475;DHT22;7323;50.848;4.334;2023-09-08T03:04:58;24.20;1.00
14475;DHT22;7323;50.848;4.334;2023-09-08T03:07:25;24.20;1.00
14475;DHT22;7323;50.848;4.334;2023-09-08T03:09:51;24.30;1.00
14475;DHT22;7323;50.848;4.334;2023-09-08T03:12:17;24.20;1.00
14475;DHT22;7323;50.848;4.334;2023-09-08T03:14:43;24.30;1.00
14475;DHT22;7323;50.848;4.334;2023-09-08T03:17:09;24.20;1.00
14475;DHT22;7323;50.848;4.334;2023-09-08T03:19:34;24.30;1.00
14475;DHT22;7323;50.848;4.334;2023-09-08T03:22:00;24.30;1.00
14475;DHT22;7323;50.848;4.334;2023-09-08T03:24:26;24.30;1.00
14475;DHT22;7323;50.848;4.334;2023-09-08T03:26:51;24.30;1.00
14475;DHT22;7323;50.848;4.334;2023-09-08T03:29:17;24.20;1.00
14475;DHT22;7323;50.848;4.334;2023-09-08T03:31:43;24.00;1.00
14475;DHT22;7323;50.848;4.334;2023-09-08T03:34:09;24.00;1.00
14475;DHT22;7323;50.848;4.334;2023-09-08T03:36:34;24.10;1.00
14475;DHT22;7323;50.848;4.334;2023-09-08T03:39:02;24.10;1.00
14475;DHT22;7323;50.848;4.334;2023-09-08T03:41:28;24.00;1.00
14475;DHT22;7323;50.848;4.334;2023-09-08T03:43:53;24.00;1.00
14475;DHT22;7323;50.848;4.334;2023-09-08T03:46:19;23.90;1.00
14475;DHT22;7323;50.848;4.334;2023-09-08T03:48:45;23.90;1.00
14475;DHT22;7323;50.848;4.334;2023-09-08T03:51:10;23.80;1.00
14475;DHT22;7323;50.848;4.334;2023-09-08T03:53:36;23.80;1.00
14475;DHT22;7323;50.848;4.334;2023-09-08T03:56:02;23.80;1.00
14475;DHT22;7323;50.848;4.334;2023-09-08T03:58:29;23.70;1.00
14475;DHT22;7323;50.848;4.334;2023-09-08T04:00:54;23.70;1.00
14475;DHT22;7323;50.848;4.334;2023-09-08T04:03:20;23.70;1.00
14475;DHT22;7323;50.848;4.334;2023-09-08T04:05:46;23.80;1.00
14475;DHT22;7323;50.848;4.334;2023-09-08T04:08:11;23.80;1.00
14475;DHT22;7323;50.848;4.334;2023-09-08T04:10:37;23.80;1.00
14475;DHT22;7323;50.848;4.334;2023-09-08T04:13:03;23.80;1.00
14475;DHT22;7323;50.848;4.334;2023-09-08T04:15:29;23.70;1.00
14475;DHT22;7323;50.848;4.334;2023-09-08T04:17:55;23.70;1.00
14475;DHT22;7323;50.848;4.334;2023-09-08T04:20:22;23.70;1.00
14475;DHT22;7323;50.848;4.334;2023-09-08T04:22:48;23.70;1.00
14475;DHT22;7323;50.848;4.334;2023-09-08T04:25:14;23.60;1.00
14475;DHT22;7323;50.848;4.334;2023-09-08T04:27:40;23.70;1.00
14475;DHT22;7323;50.848;4.334;2023-09-08T04:30:07;23.60;1.00
14475;DHT22;7323;50.848;4.334;2023-09-08T04:32:34;23.60;1.00
14475;DHT22;7323;50.848;4.334;2023-09-08T04:34:59;23.60;1.00
14475;DHT22;7323;50.848;4.334;2023-09-08T04:37:25;23.50;1.00
14475;DHT22;7323;50.848;4.334;2023-09-08T04:39:51;23.60;1.00
14475;DHT22;7323;50.848;4.334;2023-09-08T04:42:16;23.50;1.00
14475;DHT22;7323;50.848;4.334;2023-09-08T04:44:42;23.40;1.00
14475;DHT22;7323;50.848;4.334;2023-09-08T04:47:08;23.30;1.00
14475;DHT22;7323;50.848;4.334;2023-09-08T04:49:33;23.40;1.00
14475;DHT22;7323;50.848;4.334;2023-09-08T04:51:59;23.40;1.00
14475;DHT22;7323;50.848;4.334;2023-09-08T04:54:25;23.40;1.00
14475;DHT22;7323;50.848;4.334;2023-09-08T04:56:53;23.40;1.00
14475;DHT22;7323;50.848;4.334;2023-09-08T04:59:20;23.50;1.00
14475;DHT22;7323;50.848;4.334;2023-09-08T05:01:47;23.60;1.00
14475;DHT22;7323;50.848;4.334;2023-09-08T05:04:12;23.50;1.00
14475;DHT22;7323;50.848;4.334;2023-09-08T05:06:40;23.30;1.00
14475;DHT22;7323;50.848;4.334;2023-09-08T05:09:06;23.30;1.00
14475;DHT22;7323;50.848;4.334;2023-09-08T05:11:33;23.30;1.00
14475;DHT22;7323;50.848;4.334;2023-09-08T05:14:00;23.30;1.00
14475;DHT22;7323;50.848;4.334;2023-09-08T05:16:26;23.30;1.00
14475;DHT22;7323;50.848;4.334;2023-09-08T05:19:03;23.30;1.00
14475;DHT22;7323;50.848;4.334;2023-09-08T05:21:30;23.20;1.00
14475;DHT22;7323;50.848;4.334;2023-09-08T05:23:56;23.10;1.00
14475;DHT22;7323;50.848;4.334;2023-09-08T05:26:22;23.10;1.00
14475;DHT22;7323;50.848;4.334;2023-09-08T05:28:48;23.10;1.00
14475;DHT22;7323;50.848;4.334;2023-09-08T05:31:13;23.00;1.00
14475;DHT22;7323;50.848;4.334;2023-09-08T05:33:39;22.90;1.00
14475;DHT22;7323;50.848;4.334;2023-09-08T05:36:06;22.80;1.00
14475;DHT22;7323;50.848;4.334;2023-09-08T05:38:33;22.90;1.00
14475;DHT22;7323;50.848;4.334;2023-09-08T05:41:06;22.90;1.00
14475;DHT22;7323;50.848;4.334;2023-09-08T05:43:35;23.20;1.00
14475;DHT22;7323;50.848;4.334;2023-09-08T05:46:00;23.30;1.00
14475;DHT22;7323;50.848;4.334;2023-09-08T05:48:26;23.40;1.00
14475;DHT22;7323;50.848;4.334;2023-09-08T05:50:52;23.60;1.00
14475;DHT22;7323;50.848;4.334;2023-09-08T05:53:17;23.70;1.00
14475;DHT22;7323;50.848;4.334;2023-09-08T05:55:45;23.80;1.00
14475;DHT22;7323;50.848;4.334;2023-09-08T05:58:13;23.80;1.00
14475;DHT22;7323;50.848;4.334;2023-09-08T06:00:39;23.90;1.00
14475;DHT22;7323;50.848;4.334;2023-09-08T06:03:04;24.00;1.00
14475;DHT22;7323;50.848;4.334;2023-09-08T06:05:31;24.10;1.00
14475;DHT22;7323;50.848;4.334;2023-09-08T06:07:57;24.10;1.00
14475;DHT22;7323;50.848;4.334;2023-09-08T06:10:23;24.10;1.00
14475;DHT22;7323;50.848;4.334;2023-09-08T06:12:49;24.00;1.00
14475;DHT22;7323;50.848;4.334;2023-09-08T06:15:16;23.90;1.00
14475;DHT22;7323;50.848;4.334;2023-09-08T06:17:42;23.90;1.00
14475;DHT22;7323;50.848;4.334;2023-09-08T06:20:08;23.80;1.00
14475;DHT22;7323;50.848;4.334;2023-09-08T06:22:34;23.80;1.00
14475;DHT22;7323;50.848;4.334;2023-09-08T06:25:00;23.70;1.00
14475;DHT22;7323;50.848;4.334;2023-09-08T06:27:27;23.80;1.00
14475;DHT22;7323;50.848;4.334;2023-09-08T06:29:53;23.70;1.00
14475;DHT22;7323;50.848;4.334;2023-09-08T06:32:18;23.80;1.00
14475;DHT22;7323;50.848;4.334;2023-09-08T06:34:44;23.90;1.00
14475;DHT22;7323;50.848;4.334;2023-09-08T06:37:10;24.00;1.00
14475;DHT22;7323;50.848;4.334;2023-09-08T06:39:36;23.90;1.00
14475;DHT22;7323;50.848;4.334;2023-09-08T06:42:02;24.00;1.00
14475;DHT22;7323;50.848;4.334;2023-09-08T06:44:28;24.00;1.00
14475;DHT22;7323;50.848;4.334;2023-09-08T06:46:54;24.00;1.00
14475;DHT22;7323;50.848;4.334;2023-09-08T06:49:19;24.00;1.00
14475;DHT22;7323;50.848;4.334;2023-09-08T06:51:46;24.10;1.00
14475;DHT22;7323;50.848;4.334;2023-09-08T06:54:14;24.20;1.00
14475;DHT22;7323;50.848;4.334;2023-09-08T06:56:39;24.30;1.00
14475;DHT22;7323;50.848;4.334;2023-09-08T06:59:05;24.30;1.00
14475;DHT22;7323;50.848;4.334;2023-09-08T07:01:31;24.40;1.00
14475;DHT22;7323;50.848;4.334;2023-09-08T07:03:57;24.40;1.00
14475;DHT22;7323;50.848;4.334;2023-09-08T07:06:22;24.40;1.00
14475;DHT22;7323;50.848;4.334;2023-09-08T07:08:49;24.40;1.00
14475;DHT22;7323;50.848;4.334;2023-09-08T07:11:17;24.40;1.00
14475;DHT22;7323;50.848;4.334;2023-09-08T07:13:43;24.40;1.00
14475;DHT22;7323;50.848;4.334;2023-09-08T07:16:10;24.40;1.00
14475;DHT22;7323;50.848;4.334;2023-09-08T07:18:36;24.50;1.00
14475;DHT22;7323;50.848;4.334;2023-09-08T07:21:04;24.50;1.00
14475;DHT22;7323;50.848;4.334;2023-09-08T07:23:29;24.40;1.00
14475;DHT22;7323;50.848;4.334;2023-09-08T07:25:55;24.40;1.00
14475;DHT22;7323;50.848;4.334;2023-09-08T07:28:21;24.40;1.00
14475;DHT22;7323;50.848;4.334;2023-09-08T07:30:47;24.40;1.00
14475;DHT22;7323;50.848;4.334;2023-09-08T07:33:13;24.50;1.00
14475;DHT22;7323;50.848;4.334;2023-09-08T07:35:39;24.50;1.00
14475;DHT22;7323;50.848;4.334;2023-09-08T07:38:06;24.50;1.00
14475;DHT22;7323;50.848;4.334;2023-09-08T07:40:33;24.60;1.00
14475;DHT22;7323;50.848;4.334;2023-09-08T07:42:59;24.70;1.00
14475;DHT22;7323;50.848;4.334;2023-09-08T07:45:25;24.90;1.00
14475;DHT22;7323;50.848;4.334;2023-09-08T07:47:51;25.10;1.00
14475;DHT22;7323;50.848;4.334;2023-09-08T07:50:24;25.20;1.00
14475;DHT22;7323;50.848;4.334;2023-09-08T07:52:52;25.20;1.00
14475;DHT22;7323;50.848;4.334;2023-09-08T07:55:18;25.40;1.00
14475;DHT22;7323;50.848;4.334;2023-09-08T07:57:45;25.40;1.00
14475;DHT22;7323;50.848;4.334;2023-09-08T08:00:12;25.50;1.00
14475;DHT22;7323;50.848;4.334;2023-09-08T08:02:44;25.40;1.00
14475;DHT22;7323;50.848;4.334;2023-09-08T08:05:11;25.40;1.00
14475;DHT22;7323;50.848;4.334;2023-09-08T08:07:38;25.30;1.00
14475;DHT22;7323;50.848;4.334;2023-09-08T08:10:04;25.30;1.00
14475;DHT22;7323;50.848;4.334;2023-09-08T08:12:31;25.50;1.00
14475;DHT22;7323;50.848;4.334;2023-09-08T08:14:58;25.60;1.00
14475;DHT22;7323;50.848;4.334;2023-09-08T08:17:25;25.60;1.00
14475;DHT22;7323;50.848;4.334;2023-09-08T08:19:52;25.70;1.00
14475;DHT22;7323;50.848;4.334;2023-09-08T08:22:17;25.90;1.00
14475;DHT22;7323;50.848;4.334;2023-09-08T08:24:44;25.90;1.00
14475;DHT22;7323;50.848;4.334;2023-09-08T08:27:09;25.90;1.00
14475;DHT22;7323;50.848;4.334;2023-09-08T08:29:38;26.10;1.00
14475;DHT22;7323;50.848;4.334;2023-09-08T08:32:04;26.20;1.00
14475;DHT22;7323;50.848;4.334;2023-09-08T08:34:30;26.20;1.00
14475;DHT22;7323;50.848;4.334;2023-09-08T08:36:56;26.30;1.00
14475;DHT22;7323;50.848;4.334;2023-09-08T08:39:23;26.50;99.90
14475;DHT22;7323;50.848;4.334;2023-09-08T08:41:48;26.70;99.90
14475;DHT22;7323;50.848;4.334;2023-09-08T08:44:15;26.60;99.90
14475;DHT22;7323;50.848;4.334;2023-09-08T08:46:43;26.60;99.90
14475;DHT22;7323;50.848;4.334;2023-09-08T08:49:11;26.70;99.90
14475;DHT22;7323;50.848;4.334;2023-09-08T08:51:38;26.70;99.90
14475;DHT22;7323;50.848;4.334;2023-09-08T08:54:05;26.70;99.90
14475;DHT22;7323;50.848;4.334;2023-09-08T08:56:32;26.80;99.90
14475;DHT22;7323;50.848;4.334;2023-09-08T08:58:58;26.90;99.90
14475;DHT22;7323;50.848;4.334;2023-09-08T09:01:25;27.20;99.90
14475;DHT22;7323;50.848;4.334;2023-09-08T09:03:52;27.20;99.90
14475;DHT22;7323;50.848;4.334;2023-09-08T09:06:19;27.20;99.90
14475;DHT22;7323;50.848;4.334;2023-09-08T09:08:45;27.40;99.90
14475;DHT22;7323;50.848;4.334;2023-09-08T09:11:12;27.60;99.90
14475;DHT22;7323;50.848;4.334;2023-09-08T09:13:40;27.60;99.90
14475;DHT22;7323;50.848;4.334;2023-09-08T09:16:08;27.60;99.90
14475;DHT22;7323;50.848;4.334;2023-09-08T09:18:59;27.60;99.90
14475;DHT22;7323;50.848;4.334;2023-09-08T09:21:46;27.70;99.90
14475;DHT22;7323;50.848;4.334;2023-09-08T09:24:32;27.80;99.90
14475;DHT22;7323;50.848;4.334;2023-09-08T09:27:00;27.70;99.90
14475;DHT22;7323;50.848;4.334;2023-09-08T09:29:27;27.80;99.90
14475;DHT22;7323;50.848;4.334;2023-09-08T09:32:05;27.90;99.90
14475;DHT22;7323;50.848;4.334;2023-09-08T09:34:31;28.20;99.90
14475;DHT22;7323;50.848;4.334;2023-09-08T09:36:58;28.30;99.90
14475;DHT22;7323;50.848;4.334;2023-09-08T09:39:25;28.50;99.90
14475;DHT22;7323;50.848;4.334;2023-09-08T09:41:58;28.50;99.90
14475;DHT22;7323;50.848;4.334;2023-09-08T09:44:25;28.60;99.90
14475;DHT22;7323;50.848;4.334;2023-09-08T09:46:54;28.50;99.90
14475;DHT22;7323;50.848;4.334;2023-09-08T09:49:20;28.70;99.90
14475;DHT22;7323;50.848;4.334;2023-09-08T09:51:49;28.70;59.80
14475;DHT22;7323;50.848;4.334;2023-09-08T09:54:16;28.70;46.10
14475;DHT22;7323;50.848;4.334;2023-09-08T09:56:43;28.90;1.00
14475;DHT22;7323;50.848;4.334;2023-09-08T09:59:11;28.90;1.00
14475;DHT22;7323;50.848;4.334;2023-09-08T10:01:39;29.00;1.00
14475;DHT22;7323;50.848;4.334;2023-09-08T10:04:05;29.00;1.00
14475;DHT22;7323;50.848;4.334;2023-09-08T10:06:35;29.20;1.00
14475;DHT22;7323;50.848;4.334;2023-09-08T10:09:04;29.30;1.00
14475;DHT22;7323;50.848;4.334;2023-09-08T10:11:35;29.50;1.00
14475;DHT22;7323;50.848;4.334;2023-09-08T10:14:04;29.70;1.00
14475;DHT22;7323;50.848;4.334;2023-09-08T10:16:34;29.80;1.00
14475;DHT22;7323;50.848;4.334;2023-09-08T10:19:08;30.00;1.00
14475;DHT22;7323;50.848;4.334;2023-09-08T10:21:46;30.10;99.90
14475;DHT22;7323;50.848;4.334;2023-09-08T10:24:33;30.20;99.90
14475;DHT22;7323;50.848;4.334;2023-09-08T10:27:11;30.40;99.90
14475;DHT22;7323;50.848;4.334;2023-09-08T10:29:38;30.60;99.90
14475;DHT22;7323;50.848;4.334;2023-09-08T10:32:06;30.60;1.00
14475;DHT22;7323;50.848;4.334;2023-09-08T10:34:35;30.70;99.90
14475;DHT22;7323;50.848;4.334;2023-09-08T10:37:04;30.70;83.40
14475;DHT22;7323;50.848;4.334;2023-09-08T10:39:43;30.70;99.90
14475;DHT22;7323;50.848;4.334;2023-09-08T10:42:22;30.70;99.90
14475;DHT22;7323;50.848;4.334;2023-09-08T10:44:56;30.80;99.90
14475;DHT22;7323;50.848;4.334;2023-09-08T10:47:32;30.80;1.00
14475;DHT22;7323;50.848;4.334;2023-09-08T10:49:59;30.70;1.00
14475;DHT22;7323;50.848;4.334;2023-09-08T10:52:25;30.80;1.00
14475;DHT22;7323;50.848;4.334;2023-09-08T10:54:54;30.70;99.90
14475;DHT22;7323;50.848;4.334;2023-09-08T10:57:21;30.60;1.00
14475;DHT22;7323;50.848;4.334;2023-09-08T10:59:56;30.90;99.90
14475;DHT22;7323;50.848;4.334;2023-09-08T11:02:41;31.00;99.90
14475;DHT22;7323;50.848;4.334;2023-09-08T11:05:12;31.00;99.90
14475;DHT22;7323;50.848;4.334;2023-09-08T11:07:40;31.00;99.90
14475;DHT22;7323;50.848;4.334;2023-09-08T11:10:07;31.20;99.90
14475;DHT22;7323;50.848;4.334;2023-09-08T11:12:33;31.20;1.00
14475;DHT22;7323;50.848;4.334;2023-09-08T11:15:01;31.30;1.00
14475;DHT22;7323;50.848;4.334;2023-09-08T11:17:30;31.20;1.00
14475;DHT22;7323;50.848;4.334;2023-09-08T11:19:56;31.30;99.90
14475;DHT22;7323;50.848;4.334;2023-09-08T11:22:23;31.30;99.90
14475;DHT22;7323;50.848;4.334;2023-09-08T11:24:53;31.40;99.90
14475;DHT22;7323;50.848;4.334;2023-09-08T11:27:22;31.60;99.90
14475;DHT22;7323;50.848;4.334;2023-09-08T11:29:49;31.40;99.90
14475;DHT22;7323;50.848;4.334;2023-09-08T11:32:15;31.50;1.00
14475;DHT22;7323;50.848;4.334;2023-09-08T11:34:41;31.60;99.90
14475;DHT22;7323;50.848;4.334;2023-09-08T11:37:17;31.50;1.00
14475;DHT22;7323;50.848;4.334;2023-09-08T11:39:45;31.20;99.90
14475;DHT22;7323;50.848;4.334;2023-09-08T11:42:15;31.20;99.90
14475;DHT22;7323;50.848;4.334;2023-09-08T11:44:42;31.40;99.90
14475;DHT22;7323;50.848;4.334;2023-09-08T11:47:10;31.40;1.00
14475;DHT22;7323;50.848;4.334;2023-09-08T11:49:42;31.50;99.90
14475;DHT22;7323;50.848;4.334;2023-09-08T11:52:10;31.60;55.70
14475;DHT22;7323;50.848;4.334;2023-09-08T11:54:36;31.40;1.00
14475;DHT22;7323;50.848;4.334;2023-09-08T11:57:05;31.60;99.90
14475;DHT22;7323;50.848;4.334;2023-09-08T11:59:34;31.70;99.90
14475;DHT22;7323;50.848;4.334;2023-09-08T12:02:00;31.60;99.90
14475;DHT22;7323;50.848;4.334;2023-09-08T12:04:26;31.50;1.00
14475;DHT22;7323;50.848;4.334;2023-09-08T12:06:53;31.40;1.00
14475;DHT22;7323;50.848;4.334;2023-09-08T12:09:21;31.40;99.90
14475;DHT22;7323;50.848;4.334;2023-09-08T12:11:47;31.50;99.90
14475;DHT22;7323;50.848;4.334;2023-09-08T12:14:14;31.50;1.00
14475;DHT22;7323;50.848;4.334;2023-09-08T12:16:41;31.60;1.00
14475;DHT22;7323;50.848;4.334;2023-09-08T12:19:08;31.70;1.00
14475;DHT22;7323;50.848;4.334;2023-09-08T12:21:59;31.80;1.00
14475;DHT22;7323;50.848;4.334;2023-09-08T12:24:47;31.60;1.00
14475;DHT22;7323;50.848;4.334;2023-09-08T12:27:15;31.60;1.00
14475;DHT22;7323;50.848;4.334;2023-09-08T12:29:55;31.60;99.90
14475;DHT22;7323;50.848;4.334;2023-09-08T12:32:23;31.60;99.90
14475;DHT22;7323;50.848;4.334;2023-09-08T12:34:48;31.70;99.90
14475;DHT22;7323;50.848;4.334;2023-09-08T12:37:20;31.40;1.00
14475;DHT22;7323;50.848;4.334;2023-09-08T12:39:46;31.30;99.90
14475;DHT22;7323;50.848;4.334;2023-09-08T12:42:12;31.30;71.00
14475;DHT22;7323;50.848;4.334;2023-09-08T12:44:38;31.30;99.90
14475;DHT22;7323;50.848;4.334;2023-09-08T12:47:03;31.40;99.90
14475;DHT22;7323;50.848;4.334;2023-09-08T12:49:29;31.60;99.90
14475;DHT22;7323;50.848;4.334;2023-09-08T12:51:55;31.70;99.90
14475;DHT22;7323;50.848;4.334;2023-09-08T12:54:21;31.80;1.00
14475;DHT22;7323;50.848;4.334;2023-09-08T12:56:46;31.80;1.00
14475;DHT22;7323;50.848;4.334;2023-09-08T12:59:12;31.70;99.90
14475;DHT22;7323;50.848;4.334;2023-09-08T13:01:40;31.90;99.90
14475;DHT22;7323;50.848;4.334;2023-09-08T13:04:09;32.00;1.00
14475;DHT22;7323;50.848;4.334;2023-09-08T13:06:35;31.90;1.00
14475;DHT22;7323;50.848;4.334;2023-09-08T13:09:01;32.10;99.90
14475;DHT22;7323;50.848;4.334;2023-09-08T13:11:27;32.20;99.90
14475;DHT22;7323;50.848;4.334;2023-09-08T13:14:13;32.10;99.90
14475;DHT22;7323;50.848;4.334;2023-09-08T13:17:02;32.30;99.90
14475;DHT22;7323;50.848;4.334;2023-09-08T13:19:38;32.20;94.60
14475;DHT22;7323;50.848;4.334;2023-09-08T13:22:06;32.00;99.90
14475;DHT22;7323;50.848;4.334;2023-09-08T13:24:33;31.90;99.90
14475;DHT22;7323;50.848;4.334;2023-09-08T13:27:03;32.10;1.00
14475;DHT22;7323;50.848;4.334;2023-09-08T13:29:32;32.00;99.90
14475;DHT22;7323;50.848;4.334;2023-09-08T13:32:04;32.10;1.00
14475;DHT22;7323;50.848;4.334;2023-09-08T13:34:58;32.30;65.40
14475;DHT22;7323;50.848;4.334;2023-09-08T13:37:25;32.40;99.90
14475;DHT22;7323;50.848;4.334;2023-09-08T13:39:51;32.30;99.90
14475;DHT22;7323;50.848;4.334;2023-09-08T13:42:23;32.20;1.00
14475;DHT22;7323;50.848;4.334;2023-09-08T13:44:50;32.00;99.90
14475;DHT22;7323;50.848;4.334;2023-09-08T13:47:16;32.20;1.00
14475;DHT22;7323;50.848;4.334;2023-09-08T13:49:42;32.20;1.00
14475;DHT22;7323;50.848;4.334;2023-09-08T13:52:08;32.30;1.00
14475;DHT22;7323;50.848;4.334;2023-09-08T13:54:36;32.40;99.90
14475;DHT22;7323;50.848;4.334;2023-09-08T13:57:03;32.30;99.90
14475;DHT22;7323;50.848;4.334;2023-09-08T13:59:30;32.20;1.00
14475;DHT22;7323;50.848;4.334;2023-09-08T14:01:56;32.20;99.90
14475;DHT22;7323;50.848;4.334;2023-09-08T14:04:24;32.30;99.90
14475;DHT22;7323;50.848;4.334;2023-09-08T14:06:50;32.30;99.90
14475;DHT22;7323;50.848;4.334;2023-09-08T14:09:16;32.40;99.90
14475;DHT22;7323;50.848;4.334;2023-09-08T14:11:43;32.60;99.90
14475;DHT22;7323;50.848;4.334;2023-09-08T14:14:09;32.30;1.00
14475;DHT22;7323;50.848;4.334;2023-09-08T14:16:35;32.40;99.90
14475;DHT22;7323;50.848;4.334;2023-09-08T14:19:02;32.30;99.90
14475;DHT22;7323;50.848;4.334;2023-09-08T14:21:27;32.20;1.00
14475;DHT22;7323;50.848;4.334;2023-09-08T14:23:53;32.40;99.90
14475;DHT22;7323;50.848;4.334;2023-09-08T14:26:19;32.40;99.90
14475;DHT22;7323;50.848;4.334;2023-09-08T14:28:47;32.50;11.50
14475;DHT22;7323;50.848;4.334;2023-09-08T14:31:13;32.40;1.00
14475;DHT22;7323;50.848;4.334;2023-09-08T14:33:39;32.30;99.90
14475;DHT22;7323;50.848;4.334;2023-09-08T14:36:04;32.50;99.90
14475;DHT22;7323;50.848;4.334;2023-09-08T14:38:31;32.60;1.00
14475;DHT22;7323;50.848;4.334;2023-09-08T14:40:59;32.60;99.90
14475;DHT22;7323;50.848;4.334;2023-09-08T14:43:27;32.80;99.90
14475;DHT22;7323;50.848;4.334;2023-09-08T14:45:54;32.80;1.00
14475;DHT22;7323;50.848;4.334;2023-09-08T14:48:20;32.80;1.00
14475;DHT22;7323;50.848;4.334;2023-09-08T14:50:46;32.80;1.00
14475;DHT22;7323;50.848;4.334;2023-09-08T14:53:13;32.60;99.90
14475;DHT22;7323;50.848;4.334;2023-09-08T14:55:39;32.40;99.90
14475;DHT22;7323;50.848;4.334;2023-09-08T14:58:05;32.50;1.00
14475;DHT22;7323;50.848;4.334;2023-09-08T15:00:33;32.30;1.00
14475;DHT22;7323;50.848;4.334;2023-09-08T15:02:59;32.40;99.90
14475;DHT22;7323;50.848;4.334;2023-09-08T15:05:26;32.50;91.20
14475;DHT22;7323;50.848;4.334;2023-09-08T15:07:51;32.60;1.00
14475;DHT22;7323;50.848;4.334;2023-09-08T15:10:17;32.70;1.00
14475;DHT22;7323;50.848;4.334;2023-09-08T15:12:45;32.70;1.00
14475;DHT22;7323;50.848;4.334;2023-09-08T15:15:17;32.80;99.90
14475;DHT22;7323;50.848;4.334;2023-09-08T15:17:54;33.10;99.90
14475;DHT22;7323;50.848;4.334;2023-09-08T15:20:22;33.20;99.90
14475;DHT22;7323;50.848;4.334;2023-09-08T15:22:49;33.30;99.90
14475;DHT22;7323;50.848;4.334;2023-09-08T15:25:15;33.40;1.00
14475;DHT22;7323;50.848;4.334;2023-09-08T15:27:41;33.50;1.00
14475;DHT22;7323;50.848;4.334;2023-09-08T15:30:12;33.10;1.00
14475;DHT22;7323;50.848;4.334;2023-09-08T15:32:39;33.20;1.00
14475;DHT22;7323;50.848;4.334;2023-09-08T15:35:06;33.20;1.00
14475;DHT22;7323;50.848;4.334;2023-09-08T15:37:33;33.20;99.90
14475;DHT22;7323;50.848;4.334;2023-09-08T15:39:59;33.30;99.90
14475;DHT22;7323;50.848;4.334;2023-09-08T15:42:25;33.30;99.90
14475;DHT22;7323;50.848;4.334;2023-09-08T15:44:51;33.30;99.90
14475;DHT22;7323;50.848;4.334;2023-09-08T15:47:18;33.30;1.00
14475;DHT22;7323;50.848;4.334;2023-09-08T15:49:45;33.40;99.90
14475;DHT22;7323;50.848;4.334;2023-09-08T15:52:11;33.50;99.90
14475;DHT22;7323;50.848;4.334;2023-09-08T15:54:37;33.60;1.00
14475;DHT22;7323;50.848;4.334;2023-09-08T15:57:03;33.40;1.00
14475;DHT22;7323;50.848;4.334;2023-09-08T15:59:30;33.10;99.90